sensor_id;sensor_type;location;lat;lon;timestamp;noise_LAeq;noise_LA_min;noise_LA_max;noise_LA01;noise_LA95
72415;Laerm;60995;52.154;4.498;2023-07-20T00:00:47;41.43;35.02;51.89;;
72415;Laerm;60995;52.154;4.498;2023-07-20T00:03:11;41.29;35.37;51.41;;
72415;Laerm;60995;52.154;4.498;2023-07-20T00:05:32;42.22;35.34;61.82;;
72415;Laerm;60995;52.154;4.498;2023-07-20T00:07:48;42.99;35.40;53.24;;
72415;Laerm;60995;52.154;4.498;2023-07-20T00:10:08;41.37;35.46;52.56;;
72415;Laerm;60995;52.154;4.498;2023-07-20T00:12:24;41.79;35.42;53.25;;
72415;Laerm;60995;52.154;4.498;2023-07-20T00:14:40;43.32;35.09;54.71;;
72415;Laerm;60995;52.154;4.498;2023-07-20T00:16:57;43.56;34.91;53.09;;
72415;Laerm;60995;52.154;4.498;2023-07-20T00:19:13;41.31;35.18;51.91;;
72415;Laerm;60995;52.154;4.498;2023-07-20T00:21:29;42.96;35.00;52.63;;
72415;Laerm;60995;52.154;4.498;2023-07-20T00:23:45;41.32;34.95;51.15;;
72415;Laerm;60995;52.154;4.498;2023-07-20T00:26:03;41.87;34.86;56.86;;
72415;Laerm;60995;52.154;4.498;2023-07-20T00:28:20;40.39;33.55;50.75;;
72415;Laerm;60995;52.154;4.498;2023-07-20T00:30:38;42.06;33.63;58.21;;
72415;Laerm;60995;52.154;4.498;2023-07-20T00:32:54;39.84;33.64;52.12;;
72415;Laerm;60995;52.154;4.498;2023-07-20T00:35:11;41.10;33.30;54.28;;
72415;Laerm;60995;52.154;4.498;2023-07-20T00:37:28;42.16;33.26;53.40;;
72415;Laerm;60995;52.154;4.498;2023-07-20T00:39:45;40.67;33.30;51.81;;
72415;Laerm;60995;52.154;4.498;2023-07-20T00:42:01;39.98;33.44;51.62;;
72415;Laerm;60995;52.154;4.498;2023-07-20T00:44:17;40.02;33.35;51.58;;
72415;Laerm;60995;52.154;4.498;2023-07-20T00:46:33;42.25;33.55;55.86;;
72415;Laerm;60995;52.154;4.498;2023-07-20T00:48:50;41.05;32.97;52.58;;
72415;Laerm;60995;52.154;4.498;2023-07-20T00:51:07;42.89;33.74;63.23;;
72415;Laerm;60995;52.154;4.498;2023-07-20T00:53:24;40.29;33.54;51.37;;
72415;Laerm;60995;52.154;4.498;2023-07-20T00:55:40;39.61;33.47;50.86;;
72415;Laerm;60995;52.154;4.498;2023-07-20T00:57:57;40.76;33.50;53.64;;
72415;Laerm;60995;52.154;4.498;2023-07-20T01:00:15;42.35;33.61;54.09;;
72415;Laerm;60995;52.154;4.498;2023-07-20T01:02:31;41.95;33.33;54.61;;
72415;Laerm;60995;52.154;4.498;2023-07-20T01:04:48;42.91;33.41;55.48;;
72415;Laerm;60995;52.154;4.498;2023-07-20T01:07:39;38.97;33.51;49.45;;
72415;Laerm;60995;52.154;4.498;2023-07-20T01:12:35;39.50;33.67;50.58;;
72415;Laerm;60995;52.154;4.498;2023-07-20T01:14:52;40.79;33.55;61.13;;
72415;Laerm;60995;52.154;4.498;2023-07-20T01:17:08;46.27;33.48;68.41;;
72415;Laerm;60995;52.154;4.498;2023-07-20T01:19:25;41.42;33.41;54.87;;
72415;Laerm;60995;52.154;4.498;2023-07-20T01:22:31;41.11;33.61;51.38;;
72415;Laerm;60995;52.154;4.498;2023-07-20T01:33:00;40.00;33.67;51.08;;
72415;Laerm;60995;52.154;4.498;2023-07-20T01:35:20;40.24;33.56;51.67;;
72415;Laerm;60995;52.154;4.498;2023-07-20T01:37:43;39.56;33.03;51.84;;
72415;Laerm;60995;52.154;4.498;2023-07-20T01:40:01;45.10;34.03;69.04;;
72415;Laerm;60995;52.154;4.498;2023-07-20T01:42:17;39.74;33.57;50.74;;
72415;Laerm;60995;52.154;4.498;2023-07-20T01:44:33;39.76;33.43;51.25;;
72415;Laerm;60995;52.154;4.498;2023-07-20T01:46:50;42.54;33.01;52.91;;
72415;Laerm;60995;52.154;4.498;2023-07-20T01:49:06;39.97;33.08;52.16;;
72415;Laerm;60995;52.154;4.498;2023-07-20T01:51:22;42.29;33.48;55.28;;
72415;Laerm;60995;52.154;4.498;2023-07-20T01:53:38;39.74;33.31;50.47;;
72415;Laerm;60995;52.154;4.498;2023-07-20T01:55:56;40.35;33.52;50.98;;
72415;Laerm;60995;52.154;4.498;2023-07-20T01:58:13;40.88;33.56;51.71;;
72415;Laerm;60995;52.154;4.498;2023-07-20T02:00:30;41.44;33.40;54.12;;
72415;Laerm;60995;52.154;4.498;2023-07-20T02:02:46;41.54;33.81;54.91;;
72415;Laerm;60995;52.154;4.498;2023-07-20T02:05:03;40.41;33.68;51.23;;
72415;Laerm;60995;52.154;4.498;2023-07-20T02:07:19;40.49;33.37;50.76;;
72415;Laerm;60995;52.154;4.498;2023-07-20T02:09:35;40.15;33.44;51.31;;
72415;Laerm;60995;52.154;4.498;2023-07-20T02:11:51;41.42;33.39;57.92;;
72415;Laerm;60995;52.154;4.498;2023-07-20T02:14:08;41.16;33.61;51.36;;
72415;Laerm;60995;52.154;4.498;2023-07-20T02:16:24;40.66;33.38;52.00;;
72415;Laerm;60995;52.154;4.498;2023-07-20T02:18:40;39.90;33.27;51.69;;
72415;Laerm;60995;52.154;4.498;2023-07-20T02:20:56;41.26;33.24;51.60;;
72415;Laerm;60995;52.154;4.498;2023-07-20T02:23:13;46.71;33.51;63.00;;
72415;Laerm;60995;52.154;4.498;2023-07-20T02:25:29;42.97;33.37;54.88;;
72415;Laerm;60995;52.154;4.498;2023-07-20T02:27:46;40.69;33.35;57.80;;
72415;Laerm;60995;52.154;4.498;2023-07-20T02:30:03;41.03;33.31;52.13;;
72415;Laerm;60995;52.154;4.498;2023-07-20T02:32:19;40.83;33.62;62.11;;
72415;Laerm;60995;52.154;4.498;2023-07-20T02:34:36;39.80;33.23;50.27;;
72415;Laerm;60995;52.154;4.498;2023-07-20T02:36:52;40.99;33.49;58.41;;
72415;Laerm;60995;52.154;4.498;2023-07-20T02:39:09;41.96;33.36;59.08;;
72415;Laerm;60995;52.154;4.498;2023-07-20T02:41:25;41.39;33.45;53.91;;
72415;Laerm;60995;52.154;4.498;2023-07-20T02:43:42;41.00;33.59;51.99;;
72415;Laerm;60995;52.154;4.498;2023-07-20T02:45:58;49.22;35.81;66.15;;
72415;Laerm;60995;52.154;4.498;2023-07-20T02:48:14;43.87;35.89;61.19;;
72415;Laerm;60995;52.154;4.498;2023-07-20T02:50:30;43.09;36.11;58.70;;
72415;Laerm;60995;52.154;4.498;2023-07-20T02:52:47;41.30;35.08;55.51;;
72415;Laerm;60995;52.154;4.498;2023-07-20T02:55:03;42.28;35.67;53.56;;
72415;Laerm;60995;52.154;4.498;2023-07-20T02:57:20;41.75;34.96;50.69;;
72415;Laerm;60995;52.154;4.498;2023-07-20T02:59:36;41.25;35.57;50.56;;
72415;Laerm;60995;52.154;4.498;2023-07-20T03:01:52;42.25;35.77;56.02;;
72415;Laerm;60995;52.154;4.498;2023-07-20T03:04:10;43.63;35.73;63.80;;
72415;Laerm;60995;52.154;4.498;2023-07-20T03:06:26;49.52;35.91;65.73;;
72415;Laerm;60995;52.154;4.498;2023-07-20T03:08:43;52.55;35.61;77.26;;
72415;Laerm;60995;52.154;4.498;2023-07-20T03:11:03;47.16;35.42;66.29;;
72415;Laerm;60995;52.154;4.498;2023-07-20T03:13:19;42.45;35.28;56.81;;
72415;Laerm;60995;52.154;4.498;2023-07-20T03:15:35;42.52;35.41;58.22;;
72415;Laerm;60995;52.154;4.498;2023-07-20T03:17:51;44.87;35.56;63.08;;
72415;Laerm;60995;52.154;4.498;2023-07-20T03:20:09;42.27;35.57;56.26;;
72415;Laerm;60995;52.154;4.498;2023-07-20T03:22:26;42.12;35.61;54.47;;
72415;Laerm;60995;52.154;4.498;2023-07-20T03:24:42;43.51;36.06;61.47;;
72415;Laerm;60995;52.154;4.498;2023-07-20T03:26:59;42.65;35.56;61.12;;
72415;Laerm;60995;52.154;4.498;2023-07-20T03:29:15;53.34;35.69;73.31;;
72415;Laerm;60995;52.154;4.498;2023-07-20T03:31:32;48.44;34.72;74.62;;
72415;Laerm;60995;52.154;4.498;2023-07-20T03:33:48;50.93;35.10;75.67;;
72415;Laerm;60995;52.154;4.498;2023-07-20T03:36:05;42.07;35.35;60.09;;
72415;Laerm;60995;52.154;4.498;2023-07-20T03:38:22;43.06;35.75;57.05;;
72415;Laerm;60995;52.154;4.498;2023-07-20T03:40:39;42.86;35.58;57.30;;
72415;Laerm;60995;52.154;4.498;2023-07-20T03:42:55;43.29;36.40;58.70;;
72415;Laerm;60995;52.154;4.498;2023-07-20T03:45:11;42.89;35.24;53.85;;
72415;Laerm;60995;52.154;4.498;2023-07-20T03:47:28;45.26;36.60;60.76;;
72415;Laerm;60995;52.154;4.498;2023-07-20T03:49:44;46.07;36.60;63.55;;
72415;Laerm;60995;52.154;4.498;2023-07-20T03:52:01;42.91;36.00;51.49;;
72415;Laerm;60995;52.154;4.498;2023-07-20T03:54:19;44.67;37.16;54.41;;
72415;Laerm;60995;52.154;4.498;2023-07-20T03:56:35;44.48;37.09;54.79;;
72415;Laerm;60995;52.154;4.498;2023-07-20T03:58:51;43.32;36.41;52.82;;
72415;Laerm;60995;52.154;4.498;2023-07-20T04:01:08;43.40;36.48;51.50;;
72415;Laerm;60995;52.154;4.498;2023-07-20T04:03:25;46.09;36.83;56.95;;
72415;Laerm;60995;52.154;4.498;2023-07-20T04:05:43;43.66;36.95;60.02;;
72415;Laerm;60995;52.154;4.498;2023-07-20T04:07:59;45.18;36.14;60.53;;
72415;Laerm;60995;52.154;4.498;2023-07-20T04:10:15;44.75;36.04;58.19;;
72415;Laerm;60995;52.154;4.498;2023-07-20T04:12:32;46.19;35.91;58.24;;
72415;Laerm;60995;52.154;4.498;2023-07-20T04:14:48;44.55;36.38;53.87;;
72415;Laerm;60995;52.154;4.498;2023-07-20T04:17:05;45.62;37.17;54.39;;
72415;Laerm;60995;52.154;4.498;2023-07-20T04:19:21;49.50;36.35;68.78;;
72415;Laerm;60995;52.154;4.498;2023-07-20T04:21:40;56.59;37.34;81.54;;
72415;Laerm;60995;52.154;4.498;2023-07-20T04:23:57;50.00;36.33;66.91;;
72415;Laerm;60995;52.154;4.498;2023-07-20T04:26:13;47.29;36.60;57.94;;
72415;Laerm;60995;52.154;4.498;2023-07-20T04:28:30;49.04;37.00;66.15;;
72415;Laerm;60995;52.154;4.498;2023-07-20T04:30:49;46.82;37.56;57.12;;
72415;Laerm;60995;52.154;4.498;2023-07-20T04:33:07;46.93;37.52;54.27;;
72415;Laerm;60995;52.154;4.498;2023-07-20T04:35:50;44.07;36.03;53.09;;
72415;Laerm;60995;52.154;4.498;2023-07-20T04:38:07;46.88;36.70;59.50;;
72415;Laerm;60995;52.154;4.498;2023-07-20T04:40:24;49.15;37.35;68.17;;
72415;Laerm;60995;52.154;4.498;2023-07-20T04:42:40;47.72;37.37;60.06;;
72415;Laerm;60995;52.154;4.498;2023-07-20T04:44:56;46.40;36.71;57.07;;
72415;Laerm;60995;52.154;4.498;2023-07-20T04:47:12;47.68;36.59;54.66;;
72415;Laerm;60995;52.154;4.498;2023-07-20T04:49:29;52.68;37.10;67.04;;
72415;Laerm;60995;52.154;4.498;2023-07-20T04:51:45;55.27;36.90;77.97;;
72415;Laerm;60995;52.154;4.498;2023-07-20T04:54:01;49.14;37.58;67.08;;
72415;Laerm;60995;52.154;4.498;2023-07-20T04:56:18;48.57;38.54;59.18;;
72415;Laerm;60995;52.154;4.498;2023-07-20T04:58:34;50.07;38.49;62.50;;
72415;Laerm;60995;52.154;4.498;2023-07-20T05:00:51;50.13;39.14;61.53;;
72415;Laerm;60995;52.154;4.498;2023-07-20T05:03:07;48.92;38.37;63.00;;
72415;Laerm;60995;52.154;4.498;2023-07-20T05:05:24;56.79;39.53;69.83;;
72415;Laerm;60995;52.154;4.498;2023-07-20T05:07:40;52.12;37.94;67.54;;
72415;Laerm;60995;52.154;4.498;2023-07-20T05:09:56;47.12;36.36;66.73;;
72415;Laerm;60995;52.154;4.498;2023-07-20T05:12:13;45.46;36.97;54.92;;
72415;Laerm;60995;52.154;4.498;2023-07-20T05:14:29;46.75;37.02;67.41;;
72415;Laerm;60995;52.154;4.498;2023-07-20T05:16:48;47.49;38.08;61.82;;
72415;Laerm;60995;52.154;4.498;2023-07-20T05:19:04;46.64;38.82;55.90;;
72415;Laerm;60995;52.154;4.498;2023-07-20T05:21:21;47.64;38.98;54.23;;
72415;Laerm;60995;52.154;4.498;2023-07-20T05:23:37;47.97;38.15;54.89;;
72415;Laerm;60995;52.154;4.498;2023-07-20T05:25:58;48.03;37.62;63.02;;
72415;Laerm;60995;52.154;4.498;2023-07-20T05:28:14;45.90;36.95;55.30;;
72415;Laerm;60995;52.154;4.498;2023-07-20T05:30:31;48.16;37.74;59.31;;
72415;Laerm;60995;52.154;4.498;2023-07-20T05:32:47;47.39;37.80;55.80;;
72415;Laerm;60995;52.154;4.498;2023-07-20T05:35:07;47.82;37.22;69.81;;
72415;Laerm;60995;52.154;4.498;2023-07-20T05:37:24;48.10;38.59;58.43;;
72415;Laerm;60995;52.154;4.498;2023-07-20T05:39:41;50.29;37.58;63.84;;
72415;Laerm;60995;52.154;4.498;2023-07-20T05:41:57;49.38;40.22;58.26;;
72415;Laerm;60995;52.154;4.498;2023-07-20T05:44:13;49.71;37.84;69.84;;
72415;Laerm;60995;52.154;4.498;2023-07-20T05:46:29;49.61;41.11;71.65;;
72415;Laerm;60995;52.154;4.498;2023-07-20T05:48:46;48.45;38.12;59.54;;
72415;Laerm;60995;52.154;4.498;2023-07-20T05:51:02;50.84;40.10;67.37;;
72415;Laerm;60995;52.154;4.498;2023-07-20T05:53:18;50.37;40.17;64.86;;
72415;Laerm;60995;52.154;4.498;2023-07-20T05:55:35;49.53;38.52;64.99;;
72415;Laerm;60995;52.154;4.498;2023-07-20T05:57:51;48.16;39.10;59.88;;
72415;Laerm;60995;52.154;4.498;2023-07-20T06:00:08;49.21;40.91;65.03;;
72415;Laerm;60995;52.154;4.498;2023-07-20T06:02:25;48.52;40.34;57.11;;
72415;Laerm;60995;52.154;4.498;2023-07-20T06:04:41;48.20;40.53;60.52;;
72415;Laerm;60995;52.154;4.498;2023-07-20T06:06:57;49.15;41.05;66.45;;
72415;Laerm;60995;52.154;4.498;2023-07-20T06:09:14;50.23;40.22;60.17;;
72415;Laerm;60995;52.154;4.498;2023-07-20T06:11:31;51.32;44.40;65.30;;
72415;Laerm;60995;52.154;4.498;2023-07-20T06:13:47;49.58;40.01;59.80;;
72415;Laerm;60995;52.154;4.498;2023-07-20T06:16:04;48.67;40.33;58.56;;
72415;Laerm;60995;52.154;4.498;2023-07-20T06:18:22;50.49;40.86;68.09;;
72415;Laerm;60995;52.154;4.498;2023-07-20T06:20:38;48.50;40.81;58.60;;
72415;Laerm;60995;52.154;4.498;2023-07-20T06:22:55;49.75;39.71;72.85;;
72415;Laerm;60995;52.154;4.498;2023-07-20T06:25:11;49.27;39.44;58.52;;
72415;Laerm;60995;52.154;4.498;2023-07-20T06:27:27;49.72;38.86;59.87;;
72415;Laerm;60995;52.154;4.498;2023-07-20T06:29:47;52.03;41.32;67.24;;
72415;Laerm;60995;52.154;4.498;2023-07-20T06:32:04;49.61;39.19;60.15;;
72415;Laerm;60995;52.154;4.498;2023-07-20T06:34:21;49.84;38.75;59.65;;
72415;Laerm;60995;52.154;4.498;2023-07-20T06:36:37;49.43;38.23;62.88;;
72415;Laerm;60995;52.154;4.498;2023-07-20T06:38:56;50.50;38.31;63.43;;
72415;Laerm;60995;52.154;4.498;2023-07-20T06:41:13;49.44;38.10;60.43;;
72415;Laerm;60995;52.154;4.498;2023-07-20T06:43:29;50.06;39.36;59.93;;
72415;Laerm;60995;52.154;4.498;2023-07-20T06:45:52;49.64;39.01;60.01;;
72415;Laerm;60995;52.154;4.498;2023-07-20T06:48:11;49.60;39.76;59.62;;
72415;Laerm;60995;52.154;4.498;2023-07-20T06:50:28;50.42;38.07;70.56;;
72415;Laerm;60995;52.154;4.498;2023-07-20T06:52:44;49.59;40.62;58.82;;
72415;Laerm;60995;52.154;4.498;2023-07-20T06:55:00;50.12;40.69;59.89;;
72415;Laerm;60995;52.154;4.498;2023-07-20T06:57:17;50.83;41.85;63.80;;
72415;Laerm;60995;52.154;4.498;2023-07-20T06:59:33;52.22;40.90;67.64;;
72415;Laerm;60995;52.154;4.498;2023-07-20T07:01:50;49.94;38.63;65.15;;
72415;Laerm;60995;52.154;4.498;2023-07-20T07:04:06;50.42;37.41;70.78;;
72415;Laerm;60995;52.154;4.498;2023-07-20T07:06:22;50.87;38.69;61.13;;
72415;Laerm;60995;52.154;4.498;2023-07-20T07:08:39;53.33;39.79;69.87;;
72415;Laerm;60995;52.154;4.498;2023-07-20T07:10:55;49.90;40.29;60.35;;
72415;Laerm;60995;52.154;4.498;2023-07-20T07:13:11;50.86;40.79;65.02;;
72415;Laerm;60995;52.154;4.498;2023-07-20T07:15:28;50.89;40.56;67.87;;
72415;Laerm;60995;52.154;4.498;2023-07-20T07:17:44;54.43;42.55;70.87;;
72415;Laerm;60995;52.154;4.498;2023-07-20T07:20:00;50.53;39.88;60.45;;
72415;Laerm;60995;52.154;4.498;2023-07-20T07:22:16;52.08;39.56;63.53;;
72415;Laerm;60995;52.154;4.498;2023-07-20T07:24:33;54.06;40.45;71.75;;
72415;Laerm;60995;52.154;4.498;2023-07-20T07:26:52;54.78;41.63;71.88;;
72415;Laerm;60995;52.154;4.498;2023-07-20T07:29:08;50.41;39.21;65.79;;
72415;Laerm;60995;52.154;4.498;2023-07-20T07:31:29;50.76;40.53;68.33;;
72415;Laerm;60995;52.154;4.498;2023-07-20T07:33:46;52.33;41.82;67.28;;
72415;Laerm;60995;52.154;4.498;2023-07-20T07:36:02;50.31;38.67;64.00;;
72415;Laerm;60995;52.154;4.498;2023-07-20T07:38:19;49.30;38.09;59.72;;
72415;Laerm;60995;52.154;4.498;2023-07-20T07:40:35;49.19;38.26;59.48;;
72415;Laerm;60995;52.154;4.498;2023-07-20T07:42:52;54.51;43.54;66.94;;
72415;Laerm;60995;52.154;4.498;2023-07-20T07:45:08;52.04;41.45;67.75;;
72415;Laerm;60995;52.154;4.498;2023-07-20T07:47:24;50.99;40.72;69.54;;
72415;Laerm;60995;52.154;4.498;2023-07-20T07:49:41;50.02;40.20;58.96;;
72415;Laerm;60995;52.154;4.498;2023-07-20T07:51:58;49.36;39.32;63.18;;
72415;Laerm;60995;52.154;4.498;2023-07-20T07:54:14;50.36;38.85;66.85;;
72415;Laerm;60995;52.154;4.498;2023-07-20T07:56:30;51.01;37.67;77.49;;
72415;Laerm;60995;52.154;4.498;2023-07-20T07:58:47;51.05;40.15;65.05;;
72415;Laerm;60995;52.154;4.498;2023-07-20T08:01:04;52.55;39.38;71.13;;
72415;Laerm;60995;52.154;4.498;2023-07-20T08:03:20;47.52;37.64;67.51;;
72415;Laerm;60995;52.154;4.498;2023-07-20T08:05:37;50.25;39.36;65.73;;
72415;Laerm;60995;52.154;4.498;2023-07-20T08:07:53;50.06;38.89;62.19;;
72415;Laerm;60995;52.154;4.498;2023-07-20T08:10:10;47.29;38.51;60.12;;
72415;Laerm;60995;52.154;4.498;2023-07-20T08:12:26;47.59;37.57;60.56;;
72415;Laerm;60995;52.154;4.498;2023-07-20T08:14:43;48.28;38.76;60.21;;
72415;Laerm;60995;52.154;4.498;2023-07-20T08:16:59;49.68;38.60;59.08;;
72415;Laerm;60995;52.154;4.498;2023-07-20T08:19:15;52.16;43.04;63.34;;
72415;Laerm;60995;52.154;4.498;2023-07-20T08:21:31;48.40;39.04;60.03;;
72415;Laerm;60995;52.154;4.498;2023-07-20T08:23:48;48.63;38.37;58.61;;
72415;Laerm;60995;52.154;4.498;2023-07-20T08:26:04;49.43;39.92;59.68;;
72415;Laerm;60995;52.154;4.498;2023-07-20T08:28:20;51.77;41.83;60.90;;
72415;Laerm;60995;52.154;4.498;2023-07-20T08:30:48;49.09;39.68;59.88;;
72415;Laerm;60995;52.154;4.498;2023-07-20T08:33:05;50.08;39.80;61.01;;
72415;Laerm;60995;52.154;4.498;2023-07-20T08:35:21;51.06;38.69;62.66;;
72415;Laerm;60995;52.154;4.498;2023-07-20T08:37:37;51.65;39.77;59.87;;
72415;Laerm;60995;52.154;4.498;2023-07-20T08:39:53;49.39;37.31;59.48;;
72415;Laerm;60995;52.154;4.498;2023-07-20T08:42:10;49.89;38.53;60.13;;
72415;Laerm;60995;52.154;4.498;2023-07-20T08:44:26;50.04;39.67;64.69;;
72415;Laerm;60995;52.154;4.498;2023-07-20T08:46:44;53.66;40.92;67.34;;
72415;Laerm;60995;52.154;4.498;2023-07-20T08:49:01;53.58;41.20;68.34;;
72415;Laerm;60995;52.154;4.498;2023-07-20T08:51:21;51.07;37.96;60.33;;
72415;Laerm;60995;52.154;4.498;2023-07-20T08:53:37;50.81;37.63;67.18;;
72415;Laerm;60995;52.154;4.498;2023-07-20T08:55:53;49.23;40.03;61.08;;
72415;Laerm;60995;52.154;4.498;2023-07-20T08:58:12;53.70;38.37;68.16;;
72415;Laerm;60995;52.154;4.498;2023-07-20T09:00:30;49.76;38.26;60.78;;
72415;Laerm;60995;52.154;4.498;2023-07-20T09:02:53;49.70;39.07;61.46;;
72415;Laerm;60995;52.154;4.498;2023-07-20T09:05:09;51.49;38.30;67.86;;
72415;Laerm;60995;52.154;4.498;2023-07-20T09:07:26;49.58;37.82;62.03;;
72415;Laerm;60995;52.154;4.498;2023-07-20T09:09:42;50.65;38.19;61.77;;
72415;Laerm;60995;52.154;4.498;2023-07-20T09:11:58;51.81;39.70;69.88;;
72415;Laerm;60995;52.154;4.498;2023-07-20T09:14:15;51.65;40.32;64.46;;
72415;Laerm;60995;52.154;4.498;2023-07-20T09:16:31;51.26;39.07;61.36;;
72415;Laerm;60995;52.154;4.498;2023-07-20T09:18:48;53.56;38.64;71.39;;
72415;Laerm;60995;52.154;4.498;2023-07-20T09:21:05;51.56;39.13;62.62;;
72415;Laerm;60995;52.154;4.498;2023-07-20T09:23:33;49.94;38.36;61.29;;
72415;Laerm;60995;52.154;4.498;2023-07-20T09:25:50;51.12;39.04;62.86;;
72415;Laerm;60995;52.154;4.498;2023-07-20T09:28:07;53.47;37.69;68.78;;
72415;Laerm;60995;52.154;4.498;2023-07-20T09:30:27;53.50;38.29;69.62;;
72415;Laerm;60995;52.154;4.498;2023-07-20T09:32:46;53.40;36.98;71.57;;
72415;Laerm;60995;52.154;4.498;2023-07-20T09:35:03;51.65;40.03;64.87;;
72415;Laerm;60995;52.154;4.498;2023-07-20T09:37:23;50.34;39.42;61.75;;
72415;Laerm;60995;52.154;4.498;2023-07-20T09:39:46;51.09;37.60;61.56;;
72415;Laerm;60995;52.154;4.498;2023-07-20T09:42:03;51.20;38.45;63.08;;
72415;Laerm;60995;52.154;4.498;2023-07-20T09:44:21;50.57;38.22;61.60;;
72415;Laerm;60995;52.154;4.498;2023-07-20T09:46:48;50.12;36.63;61.04;;
72415;Laerm;60995;52.154;4.498;2023-07-20T09:49:08;50.25;40.25;60.48;;
72415;Laerm;60995;52.154;4.498;2023-07-20T09:51:25;52.43;40.18;66.57;;
72415;Laerm;60995;52.154;4.498;2023-07-20T09:53:41;51.17;40.39;61.80;;
72415;Laerm;60995;52.154;4.498;2023-07-20T09:55:58;50.32;40.19;60.90;;
72415;Laerm;60995;52.154;4.498;2023-07-20T09:58:16;49.61;38.64;60.38;;
72415;Laerm;60995;52.154;4.498;2023-07-20T10:00:36;52.35;40.21;65.69;;
72415;Laerm;60995;52.154;4.498;2023-07-20T10:02:55;53.17;38.71;72.19;;
72415;Laerm;60995;52.154;4.498;2023-07-20T10:05:14;49.38;38.56;59.24;;
72415;Laerm;60995;52.154;4.498;2023-07-20T10:07:31;51.83;39.97;62.78;;
72415;Laerm;60995;52.154;4.498;2023-07-20T10:09:52;52.59;40.59;65.47;;
72415;Laerm;60995;52.154;4.498;2023-07-20T10:12:10;49.27;38.84;60.10;;
72415;Laerm;60995;52.154;4.498;2023-07-20T10:14:30;51.48;40.17;64.79;;
72415;Laerm;60995;52.154;4.498;2023-07-20T10:16:58;52.20;41.33;67.13;;
72415;Laerm;60995;52.154;4.498;2023-07-20T10:19:26;47.97;37.75;58.16;;
72415;Laerm;60995;52.154;4.498;2023-07-20T10:21:56;49.53;39.67;61.97;;
72415;Laerm;60995;52.154;4.498;2023-07-20T10:24:17;51.36;42.10;62.53;;
72415;Laerm;60995;52.154;4.498;2023-07-20T10:26:34;52.74;40.21;71.06;;
72415;Laerm;60995;52.154;4.498;2023-07-20T10:28:51;50.07;40.46;59.44;;
72415;Laerm;60995;52.154;4.498;2023-07-20T10:31:10;50.88;39.45;64.32;;
72415;Laerm;60995;52.154;4.498;2023-07-20T10:33:28;51.88;39.96;70.62;;
72415;Laerm;60995;52.154;4.498;2023-07-20T10:36:01;52.21;37.56;80.10;;
72415;Laerm;60995;52.154;4.498;2023-07-20T10:38:18;50.72;39.24;69.80;;
72415;Laerm;60995;52.154;4.498;2023-07-20T10:40:39;49.85;39.51;59.62;;
72415;Laerm;60995;52.154;4.498;2023-07-20T10:43:00;50.19;38.75;68.82;;
72415;Laerm;60995;52.154;4.498;2023-07-20T10:45:18;52.74;41.28;66.03;;
72415;Laerm;60995;52.154;4.498;2023-07-20T10:47:45;51.35;39.11;65.61;;
72415;Laerm;60995;52.154;4.498;2023-07-20T10:50:02;51.36;38.73;72.34;;
72415;Laerm;60995;52.154;4.498;2023-07-20T10:52:19;51.58;39.27;67.05;;
72415;Laerm;60995;52.154;4.498;2023-07-20T10:54:47;51.33;38.84;67.74;;
72415;Laerm;60995;52.154;4.498;2023-07-20T10:57:32;49.19;38.90;61.38;;
72415;Laerm;60995;52.154;4.498;2023-07-20T10:59:48;51.73;42.05;66.90;;
72415;Laerm;60995;52.154;4.498;2023-07-20T11:02:08;51.67;38.83;71.49;;
72415;Laerm;60995;52.154;4.498;2023-07-20T11:06:57;51.28;39.22;63.25;;
72415;Laerm;60995;52.154;4.498;2023-07-20T11:09:14;51.48;39.92;62.05;;
72415;Laerm;60995;52.154;4.498;2023-07-20T11:11:34;49.97;38.84;64.94;;
72415;Laerm;60995;52.154;4.498;2023-07-20T11:16:12;50.52;38.90;60.98;;
72415;Laerm;60995;52.154;4.498;2023-07-20T11:18:28;50.60;38.41;60.42;;
72415;Laerm;60995;52.154;4.498;2023-07-20T11:20:50;51.13;40.55;62.01;;
72415;Laerm;60995;52.154;4.498;2023-07-20T11:23:08;52.25;42.65;61.76;;
72415;Laerm;60995;52.154;4.498;2023-07-20T11:25:25;49.72;39.32;61.44;;
72415;Laerm;60995;52.154;4.498;2023-07-20T11:27:46;50.79;39.12;60.59;;
72415;Laerm;60995;52.154;4.498;2023-07-20T11:30:03;50.40;40.28;61.63;;
72415;Laerm;60995;52.154;4.498;2023-07-20T11:32:24;50.66;39.19;68.13;;
72415;Laerm;60995;52.154;4.498;2023-07-20T11:34:47;49.96;39.45;66.84;;
72415;Laerm;60995;52.154;4.498;2023-07-20T11:37:05;51.75;39.71;77.61;;
72415;Laerm;60995;52.154;4.498;2023-07-20T11:39:23;51.14;37.91;76.38;;
72415;Laerm;60995;52.154;4.498;2023-07-20T11:41:54;51.14;40.83;61.73;;
72415;Laerm;60995;52.154;4.498;2023-07-20T11:44:11;49.96;38.95;65.54;;
72415;Laerm;60995;52.154;4.498;2023-07-20T11:46:29;50.48;39.06;67.26;;
72415;Laerm;60995;52.154;4.498;2023-07-20T11:48:45;54.06;41.51;65.10;;
72415;Laerm;60995;52.154;4.498;2023-07-20T11:51:01;51.67;39.68;67.19;;
72415;Laerm;60995;52.154;4.498;2023-07-20T11:53:18;52.80;40.25;70.45;;
72415;Laerm;60995;52.154;4.498;2023-07-20T11:55:36;50.76;38.79;60.87;;
72415;Laerm;60995;52.154;4.498;2023-07-20T11:58:06;52.35;41.43;69.10;;
72415;Laerm;60995;52.154;4.498;2023-07-20T12:00:24;52.87;41.34;66.36;;
72415;Laerm;60995;52.154;4.498;2023-07-20T12:02:41;51.30;41.13;61.46;;
72415;Laerm;60995;52.154;4.498;2023-07-20T12:04:57;49.83;39.21;61.82;;
72415;Laerm;60995;52.154;4.498;2023-07-20T12:07:14;52.66;38.77;61.10;;
72415;Laerm;60995;52.154;4.498;2023-07-20T12:09:30;52.61;40.58;70.87;;
72415;Laerm;60995;52.154;4.498;2023-07-20T12:11:49;49.30;39.13;59.92;;
72415;Laerm;60995;52.154;4.498;2023-07-20T12:14:08;49.14;39.11;59.74;;
72415;Laerm;60995;52.154;4.498;2023-07-20T12:16:27;49.36;39.45;58.57;;
72415;Laerm;60995;52.154;4.498;2023-07-20T12:18:44;49.97;38.51;59.27;;
72415;Laerm;60995;52.154;4.498;2023-07-20T12:21:00;51.04;39.89;69.33;;
72415;Laerm;60995;52.154;4.498;2023-07-20T12:23:17;53.00;41.47;82.84;;
72415;Laerm;60995;52.154;4.498;2023-07-20T12:25:40;53.87;39.61;69.81;;
72415;Laerm;60995;52.154;4.498;2023-07-20T12:28:01;53.92;39.20;72.25;;
72415;Laerm;60995;52.154;4.498;2023-07-20T12:30:18;50.87;40.50;67.26;;
72415;Laerm;60995;52.154;4.498;2023-07-20T12:32:34;59.99;39.70;78.12;;
72415;Laerm;60995;52.154;4.498;2023-07-20T12:34:51;49.06;39.74;58.87;;
72415;Laerm;60995;52.154;4.498;2023-07-20T12:37:07;55.09;40.33;71.85;;
72415;Laerm;60995;52.154;4.498;2023-07-20T12:39:23;50.94;41.58;64.66;;
72415;Laerm;60995;52.154;4.498;2023-07-20T12:41:39;51.39;39.25;61.33;;
72415;Laerm;60995;52.154;4.498;2023-07-20T12:43:56;53.38;40.34;73.59;;
72415;Laerm;60995;52.154;4.498;2023-07-20T12:46:13;55.52;40.53;76.28;;
72415;Laerm;60995;52.154;4.498;2023-07-20T12:48:30;51.05;38.68;76.72;;
72415;Laerm;60995;52.154;4.498;2023-07-20T12:50:47;48.99;39.40;65.38;;
72415;Laerm;60995;52.154;4.498;2023-07-20T12:53:03;50.02;38.89;60.09;;
72415;Laerm;60995;52.154;4.498;2023-07-20T12:55:19;53.63;41.27;61.78;;
72415;Laerm;60995;52.154;4.498;2023-07-20T12:57:37;53.77;40.34;62.94;;
72415;Laerm;60995;52.154;4.498;2023-07-20T12:59:53;52.27;39.63;77.67;;
72415;Laerm;60995;52.154;4.498;2023-07-20T13:02:09;49.65;38.54;68.36;;
72415;Laerm;60995;52.154;4.498;2023-07-20T13:04:26;50.24;39.59;66.72;;
72415;Laerm;60995;52.154;4.498;2023-07-20T13:06:42;49.84;40.69;60.56;;